Tiempo atmosférico en la estación meteorológica de Hervas, Cáceres (738 m.)



Fecha
DESCASC
Temp. máxima en grados centígrados (hora)
DESCASC
Temp. mínima en grados centígrados (hora)
DESCASC
Temp. media en grados centígrados
DESCASC
Racha de viento máxima en m/sg (hora)
DESCASC
Velocidad máxima media en intervalos de 10 minutos(hora)
DESCASC
Precipitaciones diarias en mm
DESCASC
Precipitaciones de 00:00 a 06:00 en mm
DESCASC
Precipitaciones de 06:00 a 12:00 en mm
DESCASC
Precipitaciones de 12:00 a 18:00 en mm
DESCASC
Precipitaciones de 18:00 a 24:00 en mm
DESCASC
22-01-2020 8.1 (16:50) 3.3 (01:00) 5.7 9.72 (23:40) 2.5 (18:30) 0.4 0 0.4 0 0
21-01-2020 7.6 (03:50) 1.5 (07:30) 4.5 11.94 (11:40) 5.83 (16:20) 0 0 0 0 0
20-01-2020 5.3 (20:30) -0.9 (05:30) 2.2 24.44 (01:10) 12.5 (00:20) 0 0 0 0 0
19-01-2020 7.3 (12:50) 2.5 (00:00) 4.9 25.56 (17:50) 13.06 (17:50) 0.2 0 0.2 0 0
18-01-2020 10.2 (15:10) 5.9 (00:00) 8 11.39 (08:10) 5.28 (08:10) 12.8 5.4 1.4 0 6
17-01-2020 11.7 (15:50) 4.3 (00:00) 8 8.33 (00:10) 3.33 (00:10) 2.2 0 2.2 0 0
16-01-2020 12.1 (14:10) 8.8 (00:00) 10.5 17.78 (19:00) 10 (07:50) 3.6 0.8 0.6 0 2.2
15-01-2020 11.4 (19:50) 7.8 (00:00) 9.6 16.67 (06:00) 9.44 (06:30) 6.2 0.2 2.6 3 0.4
14-01-2020 8.4 (19:50) -0.6 (-00:0) 3.9 13.06 (21:40) 7.78 (21:30) 0.8 0 0 0 0.8
13-01-2020 7.5 (17:00) 0 (00:00) 3.8 4.44 (15:00) 2.78 (20:30) 0 0 0 0 0
12-01-2020 10 (17:00) 0.6 (00:00) 5.3 4.72 (00:30) 3.61 (00:40) 0 0 0 0 0
11-01-2020 9.5 (15:50) 0.5 (00:00) 5 4.44 (04:30) 3.33 (04:30) 0 0 0 0 0
10-01-2020 10.5 (13:30) 0.3 (00:00) 5.4 9.17 (17:20) 4.72 (16:40) 0 0 0 0 0
09-01-2020 13.2 (12:20) 4 (00:00) 8.6 7.5 (23:10) 3.33 (23:10) 0 0 0 0 0
08-01-2020 13.7 (15:10) 3.8 (00:00) 8.7 4.72 (02:50) 3.06 (02:50) 0 0 0 0 0
07-01-2020 13.4 (16:50) 4 (00:00) 8.7 4.17 (23:50) 2.78 (23:50) 0 0 0 0 0
06-01-2020 11.2 (15:30) 2.8 (00:00) 7 3.89 (06:30) 2.78 (23:10) 0 0 0 0 0
05-01-2020 11.6 (16:30) 1.5 (00:00) 6.6 4.17 (00:20) 2.78 (02:40) 0 0 0 0 0
04-01-2020 9.6 (15:00) 2.1 (00:00) 5.9 5.83 (14:40) 3.61 (14:30) 0 0 0 0 0
03-01-2020 11.6 (15:30) 2.9 (00:00) 7.3 8.06 (19:40) 4.17 (19:20) 0 0 0 0 0
02-01-2020 10.5 (16:40) 2.4 (00:00) 6.5 3.89 (14:00) 2.5 (22:40) 0 0 0 0 0
01-01-2020 12.7 (15:50) 4.1 (00:00) 8.4 4.17 (05:10) 2.78 (05:10) 0 0 0 0 0
31-12-2019 12.8 (16:40) 3.1 (00:00) 8 3.61 (05:40) 2.5 (05:40) 0 0 0 0 0
30-12-2019 14.2 (16:30) 4 (00:00) 9.1 3.89 (00:40) 2.78 (00:40) 0 0 0 0 0
29-12-2019 16.8 (15:50) 6.1 (00:00) 11.4 5 (04:10) 3.61 (04:00) 0 0 0 0 0
28-12-2019 17.9 (14:20) 6.8 (00:00) 12.3 5 (18:10) 4.17 (18:00) 0 0 0 0 0
27-12-2019 15.3 (15:10) 4.7 (00:00) 10 4.17 (20:40) 3.06 (02:30) 0 0 0 0 0
26-12-2019 14.4 (16:00) 5.5 (00:00) 9.9 4.72 (03:50) 3.33 (03:00) 0 0 0 0 0
25-12-2019 15.7 (16:00) 7.8 (00:00) 11.8 4.72 (23:50) 2.5 (00:30) 0 0 0 0 0

Gráficas

Temp. máximas Temp. mínimas Temp. medias Precipitaciones Rachas de viento máximas Velocidades máximas media en intervalos de 10 minutos

Datos horarios

Fecha y hora oficial Temperatura (ºC) Velocidad del viento (km/h) Dirección del viento Racha (km/h) Dirección de racha Precipitación (mm) Presión (hPa) Tendencia (hPa) Humedad (%)
2020-01-23 23:00:00 6.9 8 Oeste 28 Oeste 0.2 -- -- 86
2020-01-23 22:00:00 7.3 9 Sudeste 33 Sudeste 1.8 -- -- 83
2020-01-23 21:00:00 7.7 12 Sudeste 41 Sudeste 0.6 -- -- 79
2020-01-23 20:00:00 7.9 13 Sudeste 45 Sudeste 0.2 -- -- 79
2020-01-23 19:00:00 7.8 18 Sudeste 49 Sudeste 0.2 -- -- 79
2020-01-23 18:00:00 7.6 10 Sudeste 46 Sur 0 -- -- 77
2020-01-23 17:00:00 8.1 12 Sudeste 44 Sur 0.2 -- -- 75
2020-01-23 16:00:00 8.6 6 Norte 42 Sudeste 0 -- -- 76
2020-01-23 15:00:00 9 15 Sudeste 36 Sur 0 -- -- 71
2020-01-23 14:00:00 9 9 Sudeste 34 Sudoeste 0 -- -- 68
2020-01-23 13:00:00 8.6 8 Sur 36 Noroeste 0 -- -- 71
2020-01-23 12:00:00 8.4 14 Oeste 39 Sur 0 -- -- 71
2020-01-23 11:00:00 8.1 9 Norte 27 Sudeste 0 -- -- 75
2020-01-23 10:00:00 7.4 10 Este 30 Noroeste 0 -- -- 74
2020-01-23 09:00:00 7.2 10 Oeste 34 Noroeste 0.2 -- -- 75
2020-01-23 08:00:00 6.3 7 Oeste 22 Noroeste 0 -- -- 81
2020-01-23 07:00:00 5.2 6 Noroeste 19 Noroeste 0 -- -- 91
2020-01-23 06:00:00 4.8 5 Noroeste 11 Norte 0.4 -- -- 95
2020-01-23 05:00:00 5.1 3 Sudoeste 12 Sudeste 0.6 -- -- 93
2020-01-23 04:00:00 5.7 0 Calma 17 Sur 0.6 -- -- 89
2020-01-23 03:00:00 7.4 11 Sudeste 23 Sudeste 0 -- -- 76
2020-01-23 02:00:00 6.3 5 Sur 22 Este 0 -- -- 76
2020-01-23 01:00:00 7.3 10 Sudeste 23 Sudeste 0 -- -- 65
2020-01-23 00:00:00 7.8 7 Este 35 Nordeste 0 -- -- 63
2020-01-22 23:00:00 6.1 5 Sur 11 Sur 0 -- -- 78
2020-01-22 22:00:00 5.8 7 Sur 11 Sur 0 -- -- 77
2020-01-22 21:00:00 5.3 4 Nordeste 13 Este 0 -- -- 77
2020-01-22 20:00:00 5 3 Sudeste 11 Sur 0 -- -- 81
2020-01-22 19:00:00 5.7 8 Sur 14 Sur 0 -- -- 79
2020-01-22 18:00:00 7.6 3 Sur 5 Sudoeste 0 -- -- 81
2020-01-22 17:00:00 8.1 0 Calma 4 Sur 0 -- -- 75
2020-01-22 16:00:00 7.9 0 Calma 10 Sudoeste 0 -- -- 74
2020-01-22 15:00:00 7.5 7 Oeste 14 Oeste 0 -- -- 75
2020-01-22 14:00:00 7.4 3 Norte 6 Sudeste 0 -- -- 78
2020-01-22 13:00:00 6.8 3 Sudeste 5 Sudeste 0 -- -- 79
2020-01-22 12:00:00 6.2 2 Oeste 8 Sudoeste 0 -- -- 81
2020-01-22 11:00:00 5.8 2 Noroeste 6 Sur 0 -- -- 89
2020-01-22 10:00:00 4.5 3 Sur 12 Sur 0 -- -- 95
2020-01-22 09:00:00 4.2 7 Sur 9 Sur 0.2 -- -- 94
2020-01-22 08:00:00 4.1 2 Este 11 Sudeste 0 -- -- 96
2020-01-22 07:00:00 4 0 Calma 9 Sur 0.2 -- -- 95
2020-01-22 06:00:00 3.9 0 Calma 9 Sudeste 0 -- -- 95
2020-01-22 05:00:00 4.2 0 Calma 9 Sur 0 -- -- 87
2020-01-22 04:00:00 3.8 4 Sur 7 Sudeste 0 -- -- 92
2020-01-22 03:00:00 3.6 3 Sudoeste 12 Sudeste 0 -- -- 89
2020-01-22 02:00:00 3.4 2 Sudeste 11 Sur 0 -- -- 88
2020-01-22 01:00:00 3.3 4 Este 12 Sur 0 -- -- 87
2020-01-22 00:00:00 3.6 4 Noroeste 11 Oeste 0 -- -- 85
2020-01-21 23:00:00 4.1 6 Sudoeste 14 Sudoeste 0 -- -- 82
2020-01-21 22:00:00 4.5 6 Oeste 30 Noroeste 0 -- -- 81
2020-01-21 21:00:00 4.8 12 Oeste 24 Oeste 0 -- -- 80
2020-01-21 20:00:00 4.6 9 Sudoeste 31 Este 0 -- -- 81
2020-01-21 19:00:00 6.1 8 Este 23 Nordeste 0 -- -- 73
2020-01-21 18:00:00 5 9 Sudoeste 21 Sudoeste 0 -- -- 75
2020-01-21 17:00:00 4.5 13 Norte 37 Nordeste 0 -- -- 76
2020-01-21 16:00:00 5.5 9 Norte 36 Norte 0 -- -- 71
2020-01-21 15:00:00 5.1 19 Norte 39 Norte 0 -- -- 72
2020-01-21 14:00:00 7 7 Nordeste 35 Este 0 -- -- 62
2020-01-21 13:00:00 5.5 12 Norte 31 Norte 0 -- -- 68
2020-01-21 12:00:00 6.6 8 Este 43 Este 0 -- -- 63
2020-01-21 11:00:00 3.2 7 Oeste 32 Norte 0 -- -- 73
2020-01-21 10:00:00 1.9 10 Sudoeste 18 Sudoeste 0 -- -- 76
2020-01-21 09:00:00 2 8 Oeste 21 Oeste 0 -- -- 75
2020-01-21 08:00:00 1.9 4 Noroeste 12 Sudoeste 0 -- -- 77
2020-01-21 07:00:00 1.8 5 Sur 14 Nordeste 0 -- -- 76
2020-01-21 06:00:00 3.1 4 Este 30 Este 0 -- -- 72
2020-01-21 05:00:00 2.3 4 Noroeste 26 Oeste 0 -- -- 72
2020-01-21 04:00:00 5.9 7 Nordeste 42 Sudeste 0 -- -- 60
2020-01-21 03:00:00 4 8 Este 18 Este 0 -- -- 69
2020-01-21 02:00:00 4.3 9 Sudeste 23 Sudeste 0 -- -- 66
2020-01-21 01:00:00 3.4 4 Sur 19 Este 0 -- -- 69
2020-01-21 00:00:00 2.8 10 Sudoeste 24 Oeste 0 -- -- 68
2020-01-20 23:00:00 3.3 10 Sudoeste 20 Sudoeste 0 -- -- 65
2020-01-20 22:00:00 3.7 12 Sudoeste 31 Noroeste 0 -- -- 62
2020-01-20 21:00:00 5.2 9 Este 37 Nordeste 0 -- -- 57
2020-01-20 20:00:00 4.6 17 Nordeste 42 Este 0 -- -- 57
2020-01-20 19:00:00 4.1 21 Este 63 Nordeste 0 -- -- 58
2020-01-20 18:00:00 3.9 22 Nordeste 54 Este 0 -- -- 57
2020-01-20 17:00:00 3.7 30 Nordeste 66 Nordeste 0 -- -- 55
2020-01-20 16:00:00 4.4 29 Nordeste 65 Nordeste 0 -- -- 54
2020-01-20 15:00:00 4.2 30 Nordeste 66 Nordeste 0 -- -- 53
2020-01-20 14:00:00 3.3 30 Nordeste 61 Nordeste 0 -- -- 52
2020-01-20 13:00:00 2.4 24 Nordeste 71 Nordeste 0 -- -- 55
2020-01-20 12:00:00 3.7 15 Nordeste 58 Este 0 -- -- 48
2020-01-20 11:00:00 2.4 8 Este 28 Sudeste 0 -- -- 48
2020-01-20 10:00:00 0.1 8 Sur 15 Sur 0 -- -- 58
2020-01-20 09:00:00 0 8 Sudoeste 22 Sudoeste 0 -- -- 56
2020-01-20 08:00:00 0.9 7 Sur 26 Sudoeste 0 -- -- 52
2020-01-20 07:00:00 0.4 5 Sudoeste 23 Oeste 0 -- -- 54
2020-01-20 06:00:00 -0.5 4 Sur 14 Sudoeste 0 -- -- 60
2020-01-20 05:00:00 -0.1 8 Sur 16 Nordeste 0 -- -- 59
2020-01-20 04:00:00 0.1 2 Sudeste 41 Norte 0 -- -- 60
2020-01-20 03:00:00 1.4 10 Nordeste 44 Nordeste 0 -- -- 54
2020-01-20 02:00:00 2.5 14 Nordeste 88 Nordeste 0 -- -- 51
2020-01-20 01:00:00 2.6 28 Nordeste 82 Nordeste 0 -- -- 51
2020-01-20 00:00:00 2.7 36 Nordeste 71 Este 0 -- -- 47
2020-01-19 23:00:00 2.6 23 Nordeste 86 Nordeste 0 -- -- 51
2020-01-19 22:00:00 2.6 24 Nordeste 72 Este 0 -- -- 52
2020-01-19 21:00:00 3.4 21 Este 57 Este 0 -- -- 44
2020-01-19 20:00:00 4 23 Nordeste 62 Nordeste 0 -- -- 49
2020-01-19 19:00:00 4.8 31 Nordeste 81 Nordeste 0 -- -- 53
2020-01-19 18:00:00 5.9 44 Nordeste 92 Nordeste 0 -- -- 52
2020-01-19 17:00:00 6.9 39 Nordeste 81 Nordeste 0 -- -- 53
2020-01-19 16:00:00 7.3 42 Nordeste 86 Nordeste 0 -- -- 52
2020-01-19 15:00:00 7.2 44 Nordeste 76 Nordeste 0 -- -- 49
2020-01-19 14:00:00 6.9 32 Nordeste 73 Nordeste 0 -- -- 54
2020-01-19 13:00:00 7 35 Nordeste 68 Norte 0 -- -- 62
2020-01-19 12:00:00 6.8 36 Nordeste 66 Nordeste 0 -- -- 57
2020-01-19 11:00:00 6.3 24 Nordeste 57 Nordeste 0.2 -- -- 72
2020-01-19 10:00:00 6.3 26 Nordeste 52 Nordeste 0 -- -- 71
2020-01-19 09:00:00 5.6 16 Nordeste 37 Nordeste 0 -- -- 79
2020-01-19 08:00:00 5 5 Oeste 38 Norte 0 -- -- 81
2020-01-19 07:00:00 5.7 19 Nordeste 40 Nordeste 0 -- -- 79
2020-01-19 06:00:00 6 9 Nordeste 30 Norte 0 -- -- 80
2020-01-19 05:00:00 6.4 16 Norte 34 Norte 0 -- -- 84
2020-01-19 04:00:00 6.4 11 Nordeste 24 Norte 0 -- -- 86
2020-01-19 03:00:00 6.5 12 Norte 22 Norte 0 -- -- 85
2020-01-19 02:00:00 5.8 2 Norte 6 Noroeste 0 -- -- 95
2020-01-19 01:00:00 6.4 2 Noroeste 23 Nordeste 0 -- -- 85
2020-01-19 00:00:00 6.4 7 Norte 20 Nordeste 0 -- -- 84
2020-01-18 23:00:00 6.4 8 Oeste 31 Noroeste 0 -- -- 83
2020-01-18 22:00:00 7.7 5 Oeste 34 Noroeste 4 -- -- 99
2020-01-18 21:00:00 8.7 4 Oeste 16 Noroeste 0 -- -- 100
2020-01-18 20:00:00 9 5 Oeste 30 Sudoeste 1.4 -- -- 100
2020-01-18 19:00:00 9.5 8 Oeste 24 Sudoeste 0.6 -- -- 97
2020-01-18 18:00:00 9.8 5 Noroeste 11 Norte 0 -- -- 93
2020-01-18 17:00:00 9.6 3 Noroeste 9 Oeste 0 -- -- 98
2020-01-18 16:00:00 9.6 6 Oeste 13 Noroeste 0 -- -- 96
2020-01-18 15:00:00 9.8 6 Oeste 14 Noroeste 0 -- -- 94
2020-01-18 14:00:00 9.9 4 Oeste 13 Noroeste 0 -- -- 93
2020-01-18 13:00:00 9.6 6 Oeste 18 Oeste 0 -- -- 93
2020-01-18 12:00:00 9.6 6 Noroeste 14 Noroeste 0 -- -- 92
2020-01-18 11:00:00 7.6 5 Noroeste 9 Norte 0 -- -- 100
2020-01-18 10:00:00 7 3 Norte 14 Norte 0 -- -- 100
2020-01-18 09:00:00 7.8 6 Noroeste 41 Sur 0 -- -- 92
2020-01-18 08:00:00 9 10 Sudeste 27 Sur 0.2 -- -- 81
2020-01-18 07:00:00 6.7 6 Sur 10 Sur 1.2 -- -- 97
2020-01-18 06:00:00 6.4 4 Sudeste 7 Sudeste 2.6 -- -- 98
2020-01-18 05:00:00 6.6 0 Calma 10 Sudeste 2.6 -- -- 95
2020-01-18 04:00:00 7.2 3 Oeste 10 Norte 0.2 -- -- 83
2020-01-18 03:00:00 8.5 5 Sudoeste 28 Sudeste 0 -- -- 72
2020-01-18 02:00:00 6.2 6 Sudeste 13 Sudeste 0 -- -- 90
2020-01-18 01:00:00 6.6 3 Oeste 7 Sur 0 -- -- 88
2020-01-18 00:00:00 6.2 4 Sudeste 12 Sudeste 0 -- -- 90
2020-01-17 23:00:00 6.4 4 Sur 12 Sur 0 -- -- 88
2020-01-17 22:00:00 6.5 5 Sur 12 Sur 0 -- -- 87
2020-01-17 21:00:00 6.7 6 Sur 14 Sur 0 -- -- 86
2020-01-17 20:00:00 6.1 6 Sur 13 Sur 0 -- -- 88
2020-01-17 19:00:00 5.9 9 Sur 17 Sur 0 -- -- 85
2020-01-17 18:00:00 7.4 11 Sur 14 Sur 0 -- -- 76
2020-01-17 17:00:00 9.8 9 Sur 15 Noroeste 0 -- -- 70
2020-01-17 16:00:00 11.6 6 Oeste 12 Noroeste 0 -- -- 62
2020-01-17 15:00:00 11.4 2 Sur 7 Este 0 -- -- 66
2020-01-17 14:00:00 9.8 0 Calma 5 Sur 0 -- -- 75
2020-01-17 13:00:00 9 0 Calma 6 Norte 0 -- -- 92
2020-01-17 12:00:00 8.1 4 Noroeste 12 Oeste 0 -- -- 99
2020-01-17 11:00:00 7.6 3 Noroeste 10 Noroeste 1.2 -- -- 100
2020-01-17 10:00:00 7.2 0 Calma 8 Este 1 -- -- 99
2020-01-17 09:00:00 7.2 4 Este 14 Oeste 0 -- -- 95
2020-01-17 08:00:00 6.9 0 Calma 6 Oeste 0 -- -- 94
2020-01-17 07:00:00 6.9 4 Sur 10 Sudeste 0 -- -- 92
2020-01-17 06:00:00 6.3 3 Sudeste 10 Sudeste 0 -- -- 94
2020-01-17 05:00:00 5.4 5 Sudeste 11 Oeste 0 -- -- 96
2020-01-17 04:00:00 4.5 5 Sudeste 9 Sudeste 0 -- -- 97
2020-01-17 03:00:00 4.8 5 Sudeste 11 Sudeste 0 -- -- 95
2020-01-17 02:00:00 5.6 5 Sudeste 10 Oeste 0 -- -- 93
2020-01-17 01:00:00 7.3 4 Este 30 Sur 0 -- -- 86
2020-01-17 00:00:00 9.5 9 Sudeste 42 Sur 0 -- -- 74
2020-01-16 23:00:00 10.2 21 Sur 48 Sudeste 0 -- -- 73
2020-01-16 22:00:00 8.8 12 Sur 43 Sudeste 2 -- -- 79
2020-01-16 21:00:00 9.7 26 Sur 46 Sur 0.2 -- -- 69
2020-01-16 20:00:00 11 19 Sur 54 Sudeste 0 -- -- 61
2020-01-16 19:00:00 10.8 36 Sudeste 64 Sudeste 0 -- -- 65
2020-01-16 18:00:00 10.7 21 Sur 52 Sur 0 -- -- 64
2020-01-16 17:00:00 11.2 23 Sur 57 Sur 0 -- -- 61
2020-01-16 16:00:00 11.7 26 Sur 58 Sur 0 -- -- 59
2020-01-16 15:00:00 11.6 20 Sur 47 Sur 0 -- -- 58
2020-01-16 14:00:00 12 22 Sur 47 Sudeste 0 -- -- 57
2020-01-16 13:00:00 11.4 25 Sur 42 Sur 0 -- -- 59
2020-01-16 12:00:00 11.3 17 Sur 34 Sur 0 -- -- 59
2020-01-16 11:00:00 9.7 5 Oeste 51 Sur 0 -- -- 80
2020-01-16 10:00:00 10.2 27 Sur 42 Sudeste 0 -- -- 70
2020-01-16 09:00:00 10.1 18 Sur 47 Sudeste 0 -- -- 76
2020-01-16 08:00:00 9.5 33 Sur 52 Sur 0.2 -- -- 91
2020-01-16 07:00:00 10 22 Sur 37 Sur 0.4 -- -- 89
2020-01-16 06:00:00 10.4 19 Sur 43 Sur 0 -- -- 85
2020-01-16 05:00:00 10.5 21 Sur 42 Sur 0.6 -- -- 85
2020-01-16 04:00:00 10.5 11 Sur 29 Sudoeste 0 -- -- 85
2020-01-16 03:00:00 10.1 10 Sur 27 Sur 0.2 -- -- 86
2020-01-16 02:00:00 10.4 15 Sur 32 Sur 0 -- -- 86
2020-01-16 01:00:00 10.6 17 Sur 34 Sur 0 -- -- 85
2020-01-16 00:00:00 9 4 Sur 28 Sur 0.4 -- -- 95
2020-01-15 23:00:00 10.9 15 Sur 38 Sur 0 -- -- 82
2020-01-15 22:00:00 10.7 6 Sudoeste 33 Sur 0 -- -- 83
2020-01-15 21:00:00 10.8 17 Sur 31 Sur 0 -- -- 84
2020-01-15 20:00:00 11.4 12 Sur 26 Sur 0 -- -- 79
2020-01-15 19:00:00 10.7 16 Sur 33 Sur 0 -- -- 82
2020-01-15 18:00:00 10.2 10 Sur 22 Sur 0 -- -- 85
2020-01-15 17:00:00 9.4 7 Norte 14 Nordeste 0 -- -- 97
2020-01-15 16:00:00 8.5 2 Norte 8 Sudeste 1 -- -- 99
2020-01-15 15:00:00 8.2 2 Noroeste 9 Norte 0 -- -- 100
2020-01-15 14:00:00 7.9 6 Norte 10 Norte 0.2 -- -- 99
2020-01-15 13:00:00 8.2 2 Norte 9 Noroeste 1.8 -- -- 98
2020-01-15 12:00:00 9.7 9 Oeste 36 Sudoeste 1.2 -- -- 87
2020-01-15 11:00:00 9.2 18 Sur 53 Sur 0.8 -- -- 80
2020-01-15 10:00:00 8.6 28 Sur 48 Sur 0 -- -- 84
2020-01-15 09:00:00 8.4 29 Sur 58 Sudeste 0.4 -- -- 79
2020-01-15 08:00:00 8.2 27 Sur 49 Sudeste 0.2 -- -- 79
2020-01-15 07:00:00 8.7 29 Sur 59 Sur 0 -- -- 75
2020-01-15 06:00:00 8.9 33 Sur 60 Sur 0.2 -- -- 72
2020-01-15 05:00:00 8.9 20 Sur 44 Sur 0 -- -- 70
2020-01-15 04:00:00 9.7 18 Sur 48 Sur 0 -- -- 63
2020-01-15 03:00:00 9.6 15 Sur 57 Sudoeste 0 -- -- 61
2020-01-15 02:00:00 9.5 21 Sur 49 Sur 0 -- -- 61
2020-01-15 01:00:00 9.5 19 Sur 52 Sur 0 -- -- 59
2020-01-15 00:00:00 8.4 21 Sur 45 Sudeste 0.2 -- -- 78
2020-01-14 23:00:00 8.1 23 Sur 46 Sur 0.6 -- -- 84
2020-01-14 22:00:00 8.1 22 Sur 47 Sudeste 0 -- -- 85
2020-01-14 21:00:00 8.1 24 Sur 37 Sur 0 -- -- 83
2020-01-14 20:00:00 8.4 22 Sur 41 Sur 0 -- -- 77
2020-01-14 19:00:00 7.7 12 Sur 32 Sur 0 -- -- 79
2020-01-14 18:00:00 6.1 3 Norte 10 Sudeste 0 -- -- 85
2020-01-14 17:00:00 6 9 Oeste 17 Noroeste 0 -- -- 84
2020-01-14 16:00:00 7.9 5 Noroeste 13 Noroeste 0 -- -- 76
2020-01-14 15:00:00 6.3 5 Oeste 10 Noroeste 0 -- -- 81
2020-01-14 14:00:00 5.2 3 Norte 12 Noroeste 0 -- -- 82
2020-01-14 13:00:00 5.4 6 Oeste 15 Oeste 0 -- -- 84
2020-01-14 12:00:00 -- -- -- -- -- -- -- -- --
2020-01-14 11:00:00 4.7 3 Oeste 12 Sudeste 0 -- -- 84
2020-01-14 10:00:00 3.7 2 Este 10 Noroeste 0 -- -- 87
2020-01-14 09:00:00 5.4 4 Oeste 12 Sudeste 0 -- -- 80
2020-01-14 08:00:00 4 7 Sur 16 Este 0 -- -- 87
2020-01-14 07:00:00 2.2 6 Sudeste 23 Sudeste 0 -- -- 86
2020-01-14 06:00:00 0.5 9 Sur 16 Sur 0 -- -- 88
2020-01-14 05:00:00 -0.3 7 Sudeste 13 Sur 0 -- -- 90
2020-01-14 04:00:00 -0.5 8 Sur 13 Sur 0 -- -- 91
2020-01-14 03:00:00 0.1 7 Sudeste 13 Sur 0 -- -- 88
2020-01-14 02:00:00 0.4 8 Sudeste 14 Sur 0 -- -- 88
2020-01-14 01:00:00 0.6 6 Sudeste 12 Sudeste 0 -- -- 89
2020-01-14 00:00:00 0.5 6 Sudeste 14 Sur 0 -- -- 91
2020-01-13 23:00:00 0.8 8 Sur 14 Sur 0 -- -- 88
2020-01-13 22:00:00 0.9 7 Sur 13 Sur 0 -- -- 87
2020-01-13 21:00:00 1.4 9 Sur 15 Sur 0 -- -- 88
2020-01-13 20:00:00 2 7 Sur 10 Sur 0 -- -- 87
2020-01-13 19:00:00 2.4 7 Sur 12 Sur 0 -- -- 86
2020-01-13 18:00:00 5.3 4 Sur 12 Noroeste 0 -- -- 76
2020-01-13 17:00:00 7.5 4 Oeste 12 Noroeste 0 -- -- 72
2020-01-13 16:00:00 7.2 4 Noroeste 14 Oeste 0 -- -- 73
2020-01-13 15:00:00 7.2 9 Noroeste 16 Noroeste 0 -- -- 71
2020-01-13 14:00:00 7.1 4 Noroeste 12 Oeste 0 -- -- 68
2020-01-13 13:00:00 6.3 4 Noroeste 10 Noroeste 0 -- -- 71
2020-01-13 12:00:00 5.3 0 Calma 6 Noroeste 0 -- -- 77
2020-01-13 11:00:00 3.8 0 Calma 5 Sur 0 -- -- 84
2020-01-13 10:00:00 1.1 3 Sur 10 Sur 0 -- -- 92
2020-01-13 09:00:00 0.1 7 Sur 10 Sur 0 -- -- 92
2020-01-13 08:00:00 0.1 7 Sur 13 Sur 0 -- -- 90
2020-01-13 07:00:00 0.1 8 Sudeste 12 Sur 0 -- -- 91
2020-01-13 06:00:00 0.9 8 Sur 13 Sur 0 -- -- 88
2020-01-13 05:00:00 0.9 9 Sur 13 Sur 0 -- -- 85
2020-01-13 04:00:00 0.7 9 Sudeste 14 Sur 0 -- -- 86
2020-01-13 03:00:00 0.5 8 Sur 14 Sur 0 -- -- 86
2020-01-13 02:00:00 1.1 8 Sudeste 11 Sur 0 -- -- 81
2020-01-13 01:00:00 1.1 6 Sudeste 9 Sudeste 0 -- -- 83
2020-01-13 00:00:00 1.2 6 Sur 10 Sur 0 -- -- 80
2020-01-12 23:00:00 2.1 7 Sur 11 Sur 0 -- -- 69
2020-01-12 22:00:00 2.5 6 Sudeste 12 Sur 0 -- -- 69
2020-01-12 21:00:00 2.8 9 Sur 13 Sur 0 -- -- 71
2020-01-12 20:00:00 3.1 6 Sudeste 10 Sur 0 -- -- 74
2020-01-12 19:00:00 3.6 5 Sudeste 9 Sur 0 -- -- 74
2020-01-12 18:00:00 6.2 4 Sur 6 Sur 0 -- -- 63
2020-01-12 17:00:00 10 2 Oeste 8 Oeste 0 -- -- 55
2020-01-12 16:00:00 9.8 4 Noroeste 13 Noroeste 0 -- -- 56
2020-01-12 15:00:00 9.4 8 Noroeste 12 Oeste 0 -- -- 58
2020-01-12 14:00:00 8.8 5 Noroeste 9 Noroeste 0 -- -- 56
2020-01-12 13:00:00 7.6 5 Oeste 11 Oeste 0 -- -- 56
2020-01-12 12:00:00 7.2 0 Calma 7 Norte 0 -- -- 56
2020-01-12 11:00:00 4.5 4 Sur 13 Sur 0 -- -- 63
2020-01-12 10:00:00 1.4 8 Sudeste 13 Sur 0 -- -- 67
2020-01-12 09:00:00 0.9 9 Sudeste 14 Sur 0 -- -- 65
2020-01-12 08:00:00 1.1 12 Sur 14 Sur 0 -- -- 62
2020-01-12 07:00:00 0.7 9 Sudeste 16 Sur 0 -- -- 65
2020-01-12 06:00:00 1.2 7 Sudeste 15 Sur 0 -- -- 62
2020-01-12 05:00:00 1.6 8 Sur 16 Sudeste 0 -- -- 65
2020-01-12 04:00:00 2.7 11 Sur 16 Sur 0 -- -- 63
2020-01-12 03:00:00 2.4 10 Sur 14 Sur 0 -- -- 65
2020-01-12 02:00:00 1.8 8 Sudeste 15 Sur 0 -- -- 60
2020-01-12 01:00:00 2.4 11 Sur 17 Sur 0 -- -- 61
2020-01-12 00:00:00 1.8 9 Sudeste 15 Sur 0 -- -- 67
2020-01-11 23:00:00 2 9 Sudeste 14 Sur 0 -- -- 66
2020-01-11 22:00:00 2.1 8 Sur 15 Sur 0 -- -- 68
2020-01-11 21:00:00 2.8 8 Sudeste 12 Sudeste 0 -- -- 63
2020-01-11 20:00:00 2.5 7 Sudeste 12 Sur 0 -- -- 77
2020-01-11 19:00:00 2.9 9 Sur 13 Sur 0 -- -- 76
2020-01-11 18:00:00 5.6 9 Sur 13 Sur 0 -- -- 65
2020-01-11 17:00:00 9.1 4 Sudoeste 11 Oeste 0 -- -- 55
2020-01-11 16:00:00 9.5 5 Oeste 12 Oeste 0 -- -- 56
2020-01-11 15:00:00 8.9 6 Oeste 12 Noroeste 0 -- -- 56
2020-01-11 14:00:00 8.1 8 Noroeste 13 Noroeste 0 -- -- 56
2020-01-11 13:00:00 7.6 5 Oeste 12 Oeste 0 -- -- 52
2020-01-11 12:00:00 7.4 0 Calma 5 Sur 0 -- -- 53
2020-01-11 11:00:00 3.2 5 Sur 10 Sur 0 -- -- 66
2020-01-11 10:00:00 0.6 6 Sudeste 9 Sudeste 0 -- -- 75
2020-01-11 09:00:00 0.5 6 Sur 9 Sudeste 0 -- -- 74
2020-01-11 08:00:00 1.4 4 Sudeste 13 Sur 0 -- -- 70
2020-01-11 07:00:00 1.7 8 Sur 14 Sur 0 -- -- 68
2020-01-11 06:00:00 1.5 9 Sur 15 Sur 0 -- -- 70
2020-01-11 05:00:00 2 6 Sudeste 16 Sur 0 -- -- 67
2020-01-11 04:00:00 1.7 6 Sudeste 11 Sur 0 -- -- 70
2020-01-11 03:00:00 1.8 6 Sur 13 Sur 0 -- -- 72
2020-01-11 02:00:00 1.5 9 Sur 14 Sur 0 -- -- 75
2020-01-11 01:00:00 1.8 6 Sudeste 13 Sudeste 0 -- -- 74
2020-01-11 00:00:00 1.1 8 Sudeste 13 Sur 0 -- -- 79
2020-01-10 23:00:00 1.5 6 Sudeste 17 Sur 0 -- -- 78
2020-01-10 22:00:00 2.3 10 Sur 16 Sur 0 -- -- 75
2020-01-10 21:00:00 3.4 7 Sur 15 Sur 0 -- -- 69
2020-01-10 20:00:00 4.2 9 Sur 14 Sur 0 -- -- 67
2020-01-10 19:00:00 5.4 6 Sur 24 Norte 0 -- -- 64
2020-01-10 18:00:00 8.1 9 Nordeste 33 Norte 0 -- -- 55
2020-01-10 17:00:00 9.7 14 Norte 32 Nordeste 0 -- -- 47
2020-01-10 16:00:00 10.1 7 Sudoeste 32 Norte 0 -- -- 54
2020-01-10 15:00:00 9.4 14 Norte 30 Norte 0 -- -- 56
2020-01-10 14:00:00 9.2 16 Norte 32 Norte 0 -- -- 56
2020-01-10 13:00:00 9.7 6 Sur 13 Sudoeste 0 -- -- 46
2020-01-10 12:00:00 7.6 3 Oeste 10 Oeste 0 -- -- 56
2020-01-10 11:00:00 5.3 5 Sur 11 Sudeste 0 -- -- 65
2020-01-10 10:00:00 3.8 6 Sudoeste 15 Sudoeste 0 -- -- 66
2020-01-10 09:00:00 0.8 7 Sudeste 13 Sur 0 -- -- 75
2020-01-10 08:00:00 0.3 7 Sudeste 13 Sur 0 -- -- 81
2020-01-10 07:00:00 1.1 6 Sudeste 11 Sur 0 -- -- 81
2020-01-10 06:00:00 1.9 4 Sudeste 14 Oeste 0 -- -- 83
2020-01-10 05:00:00 3.5 4 Sudoeste 19 Norte 0 -- -- 77
2020-01-10 04:00:00 4.4 5 Sudoeste 14 Norte 0 -- -- 74
2020-01-10 03:00:00 5 4 Sudeste 24 Norte 0 -- -- 75
2020-01-10 02:00:00 6.7 13 Norte 32 Norte 0 -- -- 70
2020-01-10 01:00:00 7.2 15 Norte 28 Norte 0 -- -- 77
2020-01-10 00:00:00 7.6 6 Este 27 Norte 0 -- -- 75
2020-01-09 23:00:00 8.5 11 Norte 24 Norte 0 -- -- 73
2020-01-09 22:00:00 8.6 5 Sudeste 13 Oeste 0 -- -- 83
2020-01-09 21:00:00 10.2 9 Oeste 15 Noroeste 0 -- -- 79
2020-01-09 20:00:00 9.7 3 Sudeste 8 Sudeste 0 -- -- 77
2020-01-09 19:00:00 9.2 2 Este 8 Noroeste 0 -- -- 75
2020-01-09 18:00:00 10.1 3 Este 10 Oeste 0 -- -- 72
2020-01-09 17:00:00 11.6 6 Noroeste 12 Noroeste 0 -- -- 66
2020-01-09 16:00:00 12.4 3 Norte 10 Noroeste 0 -- -- 62
2020-01-09 15:00:00 11.6 6 Noroeste 16 Oeste 0 -- -- 64
2020-01-09 14:00:00 12.6 4 Noroeste 9 Sudeste 0 -- -- 60
2020-01-09 13:00:00 10.2 2 Nordeste 19 Oeste 0 -- -- 65
2020-01-09 12:00:00 12.3 4 Sudeste 8 Sur 0 -- -- 55
2020-01-09 11:00:00 8.6 6 Sur 13 Sur 0 -- -- 61
2020-01-09 10:00:00 4.7 3 Sudeste 11 Sudeste 0 -- -- 70
2020-01-09 09:00:00 4.5 3 Sudoeste 9 Sudeste 0 -- -- 70
2020-01-09 08:00:00 4.7 6 Sur 12 Sur 0 -- -- 65
2020-01-09 07:00:00 4.5 6 Sur 11 Sudeste 0 -- -- 62
2020-01-09 06:00:00 4.9 6 Sudeste 10 Sudeste 0 -- -- 58
2020-01-09 05:00:00 4.5 7 Sur 10 Sur 0 -- -- 62
2020-01-09 04:00:00 5 5 Sur 10 Sudeste 0 -- -- 56
2020-01-09 03:00:00 5 7 Sur 11 Sur 0 -- -- 60
2020-01-09 02:00:00 4.9 7 Sudeste 10 Sur 0 -- -- 63
2020-01-09 01:00:00 4.8 8 Sudeste 10 Sur 0 -- -- 67
2020-01-09 00:00:00 4.8 7 Sudeste 10 Sur 0 -- -- 66
2020-01-08 23:00:00 5 8 Sur 10 Sur 0 -- -- 62
2020-01-08 22:00:00 5.2 5 Sudeste 7 Sur 0 -- -- 64
2020-01-08 21:00:00 5.7 6 Sudeste 9 Sudeste 0 -- -- 64
2020-01-08 20:00:00 6.7 3 Sur 10 Sur 0 -- -- 56
2020-01-08 19:00:00 8.1 10 Sur 13 Sur 0 -- -- 51
2020-01-08 18:00:00 8.7 3 Sudeste 5 Sudeste 0 -- -- 60
2020-01-08 17:00:00 12.6 2 Norte 6 Noroeste 0 -- -- 58
2020-01-08 16:00:00 13.2 4 Noroeste 9 Oeste 0 -- -- 50
2020-01-08 15:00:00 13.6 3 Noroeste 8 Noroeste 0 -- -- 34
2020-01-08 14:00:00 12.5 3 Norte 5 Noroeste 0 -- -- 39
2020-01-08 13:00:00 10.6 3 Noroeste 5 Noroeste 0 -- -- 42
2020-01-08 12:00:00 9.4 4 Noroeste 8 Noroeste 0 -- -- 46
2020-01-08 11:00:00 7.2 0 Calma 8 Sudeste 0 -- -- 44
2020-01-08 10:00:00 5.1 5 Sudeste 9 Sudeste 0 -- -- 48
2020-01-08 09:00:00 4.1 4 Sudeste 6 Sur 0 -- -- 47
2020-01-08 08:00:00 4.8 2 Sur 6 Sudeste 0 -- -- 46
2020-01-08 07:00:00 5.3 3 Sudeste 5 Sudeste 0 -- -- 46
2020-01-08 06:00:00 6.7 4 Sudeste 14 Sur 0 -- -- 38
2020-01-08 05:00:00 7.6 10 Sur 15 Sur 0 -- -- 38
2020-01-08 04:00:00 6.9 8 Sudeste 16 Sudeste 0 -- -- 41
2020-01-08 03:00:00 6.6 9 Sudeste 17 Sur 0 -- -- 42
2020-01-08 02:00:00 5.5 9 Sur 12 Sur 0 -- -- 52
2020-01-08 01:00:00 6.1 5 Sudeste 12 Sur 0 -- -- 49
2020-01-08 00:00:00 5.7 10 Sur 15 Sur 0 -- -- 55
2020-01-07 23:00:00 6.5 4 Sur 13 Sur 0 -- -- 49
2020-01-07 22:00:00 6.4 7 Sudeste 14 Sur 0 -- -- 55
2020-01-07 21:00:00 6.9 8 Sudeste 12 Sur 0 -- -- 58
2020-01-07 20:00:00 6.2 6 Sudeste 10 Sur 0 -- -- 64
2020-01-07 19:00:00 7.4 5 Sudeste 9 Sudeste 0 -- -- 62
2020-01-07 18:00:00 10.8 3 Sur 14 Sur 0 -- -- 56
2020-01-07 17:00:00 13.1 0 Calma 7 Noroeste 0 -- -- 60
2020-01-07 16:00:00 13 4 Noroeste 9 Oeste 0 -- -- 59
2020-01-07 15:00:00 13.3 4 Noroeste 8 Noroeste 0 -- -- 54
2020-01-07 14:00:00 12.3 4 Noroeste 7 Norte 0 -- -- 50
2020-01-07 13:00:00 11.7 4 Noroeste 9 Noroeste 0 -- -- 54
2020-01-07 12:00:00 12.1 0 Calma 5 Sudeste 0 -- -- 42
2020-01-07 11:00:00 8.8 5 Sur 10 Sur 0 -- -- 51
2020-01-07 10:00:00 6.1 6 Sudeste 10 Sudeste 0 -- -- 56
2020-01-07 09:00:00 4.9 5 Sudeste 8 Sudeste 0 -- -- 58
2020-01-07 08:00:00 5.3 4 Sur 8 Sur 0 -- -- 59
2020-01-07 07:00:00 5.2 4 Sur 9 Sur 0 -- -- 59
2020-01-07 06:00:00 4.5 5 Sudeste 9 Sudeste 0 -- -- 63
2020-01-07 05:00:00 4 5 Sur 10 Sur 0 -- -- 65
2020-01-07 04:00:00 5 8 Sur 12 Sur 0 -- -- 60
2020-01-07 03:00:00 4.8 8 Sudeste 10 Sur 0 -- -- 60
2020-01-07 02:00:00 4.9 5 Sudeste 11 Sur 0 -- -- 60
2020-01-07 01:00:00 4.5 6 Sudeste 13 Sur 0 -- -- 62
2020-01-07 00:00:00 4.7 7 Sur 14 Sur 0 -- -- 63
2020-01-06 23:00:00 4.4 9 Sur 13 Sur 0 -- -- 64
2020-01-06 22:00:00 5.5 7 Sudeste 13 Sudeste 0 -- -- 60
2020-01-06 21:00:00 5.9 7 Sudeste 14 Sur 0 -- -- 62
2020-01-06 20:00:00 5.3 5 Sudeste 11 Sudeste 0 -- -- 72
2020-01-06 19:00:00 5 5 Sur 8 Sur 0 -- -- 79
2020-01-06 18:00:00 8.6 0 Calma 5 Sur 0 -- -- 63
2020-01-06 17:00:00 11.2 0 Calma 6 Noroeste 0 -- -- 57
2020-01-06 16:00:00 11.1 2 Oeste 12 Noroeste 0 -- -- 57
2020-01-06 15:00:00 10.9 5 Oeste 13 Noroeste 0 -- -- 61
2020-01-06 14:00:00 10.7 4 Noroeste 12 Noroeste 0 -- -- 62
2020-01-06 13:00:00 10.7 4 Noroeste 8 Noroeste 0 -- -- 46
2020-01-06 12:00:00 9.3 0 Calma 5 Sudeste 0 -- -- 49
2020-01-06 11:00:00 5.9 0 Calma 8 Sur 0 -- -- 62
2020-01-06 10:00:00 3.4 3 Sudeste 13 Sur 0 -- -- 63